Time;durP1;ratioP1;P1;durP2;ratioP2;P2;SDS_P1;SDS_P2;PMS_P1;PMS_P2;Temp;Humidity;BMP_temperature;BMP_pressure;BME280_temperature;BME280_humidity;BME280_pressure;Samples;Min_cycle;Max_cycle;Signal;HPM_P1;HPM_P2
2023/12/25 00:00:07;;;;;;;339.07;321.27;;;;;;;;;;5008106;28;20463;-38
2023/12/25 00:02:35;;;;;;;354.00;335.30;;;;;;;;;;5008736;28;20565;-39
2023/12/25 00:05:02;;;;;;;356.47;337.87;;;;;;;;;;5020341;28;20460;-39
2023/12/25 00:07:30;;;;;;;348.60;330.80;;;;;;;;;;5036151;28;20435;-41
2023/12/25 00:09:59;;;;;;;347.60;329.93;;;;;;;;;;5047888;28;20977;-36
2023/12/25 00:12:26;;;;;;;342.93;325.37;;;;;;;;;;5050876;28;20450;-36
2023/12/25 00:14:54;;;;;;;344.30;326.70;;;;;;;;;;5032130;28;20459;-36
2023/12/25 00:17:22;;;;;;;347.33;330.03;;;;;;;;;;5050281;28;20475;-36
2023/12/25 00:19:50;;;;;;;338.77;321.10;;;;;;;;;;5043837;28;20488;-36
2023/12/25 00:22:18;;;;;;;342.67;325.07;;;;;;;;;;5043637;28;20511;-36
2023/12/25 00:24:45;;;;;;;336.53;319.47;;;;;;;;;;5036865;28;20460;-41
2023/12/25 00:27:15;;;;;;;336.50;318.70;;;;;;;;;;5055849;28;20439;-36
2023/12/25 00:29:42;;;;;;;342.13;324.90;;;;;;;;;;5047537;28;20479;-36
2023/12/25 00:32:10;;;;;;;344.17;326.03;;;;;;;;;;5054647;28;20518;-36
2023/12/25 00:34:38;;;;;;;333.10;315.03;;;;;;;;;;5056084;28;20451;-37
2023/12/25 00:37:05;;;;;;;343.40;325.50;;;;;;;;;;5053460;28;20524;-37
2023/12/25 00:39:33;;;;;;;353.90;335.63;;;;;;;;;;5046665;28;20973;-36
2023/12/25 00:42:01;;;;;;;360.70;340.27;;;;;;;;;;5046285;28;20435;-38
2023/12/25 00:44:30;;;;;;;367.40;347.63;;;;;;;;;;5055371;28;20438;-36
2023/12/25 00:46:57;;;;;;;369.07;350.50;;;;;;;;;;5046816;28;20493;-36
2023/12/25 00:49:25;;;;;;;373.30;354.03;;;;;;;;;;5055027;28;20428;-36
2023/12/25 00:51:52;;;;;;;373.73;353.20;;;;;;;;;;5047166;28;20431;-36
2023/12/25 00:54:20;;;;;;;362.13;343.60;;;;;;;;;;5056542;28;20442;-38
2023/12/25 00:56:48;;;;;;;351.73;333.63;;;;;;;;;;5055923;28;20499;-36
2023/12/25 00:59:15;;;;;;;361.03;341.90;;;;;;;;;;5049040;28;20440;-36
2023/12/25 01:01:43;;;;;;;352.37;334.70;;;;;;;;;;5053132;28;20435;-36
2023/12/25 01:04:11;;;;;;;341.27;324.50;;;;;;;;;;5040747;28;20440;-37
2023/12/25 01:06:39;;;;;;;357.00;338.47;;;;;;;;;;5035484;28;20458;-36
2023/12/25 01:09:06;;;;;;;352.83;333.90;;;;;;;;;;5056385;28;20856;-38
2023/12/25 01:11:39;;;;;;;356.57;338.27;;;;;;;;;;5046997;28;20965;-36
2023/12/25 01:14:07;;;;;;;358.83;340.83;;;;;;;;;;5049441;28;20451;-39
2023/12/25 01:16:35;;;;;;;357.40;337.97;;;;;;;;;;5042697;28;20480;-38
2023/12/25 01:19:03;;;;;;;354.37;336.00;;;;;;;;;;5042271;28;20515;-38
2023/12/25 01:21:32;;;;;;;360.97;341.00;;;;;;;;;;5038124;28;20539;-39
2023/12/25 01:23:59;;;;;;;372.17;352.53;;;;;;;;;;5034207;28;20440;-36
2023/12/25 01:26:30;;;;;;;375.47;356.77;;;;;;;;;;5035802;28;20461;-36
2023/12/25 01:28:58;;;;;;;356.97;338.40;;;;;;;;;;5045940;28;20435;-36
2023/12/25 01:31:25;;;;;;;346.77;329.20;;;;;;;;;;5037911;28;20470;-36
2023/12/25 01:33:53;;;;;;;363.93;345.23;;;;;;;;;;5044794;28;20433;-36
2023/12/25 01:36:22;;;;;;;370.10;351.73;;;;;;;;;;5053194;28;20463;-37
2023/12/25 01:38:49;;;;;;;342.40;324.60;;;;;;;;;;5044985;28;20477;-36
2023/12/25 01:41:17;;;;;;;338.00;320.93;;;;;;;;;;5041519;28;20456;-36
2023/12/25 01:43:46;;;;;;;343.60;326.20;;;;;;;;;;5034561;28;20552;-36
2023/12/25 01:46:14;;;;;;;340.53;322.57;;;;;;;;;;5052553;28;20509;-36
2023/12/25 01:48:42;;;;;;;336.40;318.17;;;;;;;;;;5057874;28;20435;-36
2023/12/25 01:51:10;;;;;;;336.53;319.03;;;;;;;;;;5048361;28;20451;-36
2023/12/25 01:53:39;;;;;;;353.37;333.60;;;;;;;;;;5045325;28;20503;-36
2023/12/25 01:56:07;;;;;;;350.43;331.90;;;;;;;;;;5040413;28;21030;-39
2023/12/25 01:58:35;;;;;;;349.37;331.20;;;;;;;;;;5041091;28;20562;-37
2023/12/25 02:01:03;;;;;;;363.53;344.43;;;;;;;;;;5032896;28;21138;-36
2023/12/25 02:03:30;;;;;;;359.57;341.40;;;;;;;;;;5034444;28;20442;-36
2023/12/25 02:05:58;;;;;;;353.43;335.17;;;;;;;;;;5043667;28;20889;-36
2023/12/25 02:08:26;;;;;;;342.97;323.43;;;;;;;;;;5037704;28;20425;-36
2023/12/25 02:10:55;;;;;;;339.87;320.77;;;;;;;;;;5043163;28;20460;-37
2023/12/25 02:13:23;;;;;;;347.27;329.90;;;;;;;;;;5054428;28;20518;-36
2023/12/25 02:15:51;;;;;;;349.90;332.10;;;;;;;;;;5044417;28;20663;-36
2023/12/25 02:18:18;;;;;;;345.83;326.90;;;;;;;;;;5052007;28;20549;-38
2023/12/25 02:20:47;;;;;;;372.63;352.40;;;;;;;;;;5038099;28;20448;-37
2023/12/25 02:23:16;;;;;;;370.80;351.00;;;;;;;;;;5046328;28;20995;-36
2023/12/25 02:25:53;;;;;;;369.13;349.23;;;;;;;;;;5051884;28;20534;-36
2023/12/25 02:28:22;;;;;;;369.80;350.20;;;;;;;;;;5051922;28;20443;-36
2023/12/25 02:30:51;;;;;;;363.17;343.30;;;;;;;;;;5052078;28;21000;-36
2023/12/25 02:33:19;;;;;;;345.63;329.20;;;;;;;;;;5079346;22;20493;-39
2023/12/25 02:35:46;;;;;;;365.50;346.67;;;;;;;;;;5087377;28;20581;-37
2023/12/25 02:38:14;;;;;;;368.37;349.57;;;;;;;;;;5074174;28;20470;-39
2023/12/25 02:40:42;;;;;;;371.10;351.60;;;;;;;;;;5077313;28;20437;-39
2023/12/25 02:43:11;;;;;;;371.20;352.50;;;;;;;;;;5074790;28;20544;-44
2023/12/25 02:45:39;;;;;;;370.30;350.17;;;;;;;;;;5090982;28;20453;-39
2023/12/25 02:48:07;;;;;;;356.93;338.90;;;;;;;;;;5083252;28;20439;-39
2023/12/25 02:50:35;;;;;;;358.47;341.17;;;;;;;;;;5068070;28;20495;-39
2023/12/25 02:53:03;;;;;;;395.93;376.13;;;;;;;;;;5070866;28;20489;-42
2023/12/25 02:55:31;;;;;;;397.83;377.80;;;;;;;;;;5089283;28;20540;-39
2023/12/25 02:57:59;;;;;;;381.13;361.57;;;;;;;;;;5086414;28;20469;-37
2023/12/25 03:00:28;;;;;;;433.77;405.30;;;;;;;;;;5091566;28;20502;-41
2023/12/25 03:02:55;;;;;;;426.27;396.37;;;;;;;;;;5087392;28;20464;-38
2023/12/25 03:05:23;;;;;;;437.27;407.17;;;;;;;;;;5076002;28;20463;-36
2023/12/25 03:07:51;;;;;;;439.60;410.03;;;;;;;;;;5069745;28;20469;-40
2023/12/25 03:10:19;;;;;;;436.97;407.93;;;;;;;;;;5091222;28;20442;-37
2023/12/25 03:12:46;;;;;;;415.80;385.27;;;;;;;;;;5074378;28;20457;-37
2023/12/25 03:15:14;;;;;;;418.33;388.30;;;;;;;;;;5085731;28;20466;-39
2023/12/25 03:17:43;;;;;;;421.83;391.17;;;;;;;;;;5075567;28;20666;-39
2023/12/25 03:20:12;;;;;;;387.07;358.07;;;;;;;;;;5083057;28;20441;-36
2023/12/25 03:22:40;;;;;;;429.17;400.37;;;;;;;;;;5067296;28;20961;-40
2023/12/25 03:25:07;;;;;;;431.93;402.53;;;;;;;;;;5061496;28;20636;-41
2023/12/25 03:27:35;;;;;;;420.13;391.83;;;;;;;;;;5074465;28;20437;-38
2023/12/25 03:30:03;;;;;;;409.30;382.60;;;;;;;;;;5071229;28;20434;-39
2023/12/25 03:32:31;;;;;;;406.00;378.03;;;;;;;;;;5086299;28;20469;-39
2023/12/25 03:35:00;;;;;;;400.40;375.43;;;;;;;;;;5087777;28;21012;-36
2023/12/25 03:37:28;;;;;;;404.60;378.23;;;;;;;;;;5073399;28;20873;-40
2023/12/25 03:39:57;;;;;;;422.60;396.63;;;;;;;;;;5081747;28;21088;-38
2023/12/25 03:42:25;;;;;;;430.40;404.40;;;;;;;;;;5050773;28;20467;-41
2023/12/25 03:44:52;;;;;;;397.70;374.37;;;;;;;;;;5087145;28;20461;-37
2023/12/25 03:47:20;;;;;;;409.20;386.80;;;;;;;;;;5090797;28;20495;-38
2023/12/25 03:49:48;;;;;;;387.70;365.50;;;;;;;;;;5058231;28;20435;-37
2023/12/25 03:52:17;;;;;;;380.57;356.50;;;;;;;;;;5094913;28;20464;-41
2023/12/25 03:54:44;;;;;;;376.20;354.00;;;;;;;;;;5094542;28;20463;-37
2023/12/25 03:57:12;;;;;;;381.10;359.53;;;;;;;;;;5091301;28;20441;-37
2023/12/25 03:59:39;;;;;;;355.87;335.83;;;;;;;;;;5083528;28;20848;-41
2023/12/25 04:02:07;;;;;;;349.27;330.17;;;;;;;;;;5094275;28;20991;-37
2023/12/25 04:04:34;;;;;;;347.63;328.80;;;;;;;;;;5083701;28;20822;-40
2023/12/25 04:07:02;;;;;;;336.47;316.80;;;;;;;;;;5077251;28;20433;-38
2023/12/25 04:09:31;;;;;;;347.80;328.27;;;;;;;;;;5094600;28;20433;-40
2023/12/25 04:11:58;;;;;;;348.80;328.40;;;;;;;;;;5090641;28;20493;-39
2023/12/25 04:14:26;;;;;;;328.27;308.50;;;;;;;;;;5094580;28;20495;-40
2023/12/25 04:16:54;;;;;;;345.70;327.53;;;;;;;;;;5073530;28;20529;-39
2023/12/25 04:19:21;;;;;;;359.37;338.10;;;;;;;;;;5080846;28;20550;-38
2023/12/25 04:21:49;;;;;;;339.10;321.00;;;;;;;;;;5073593;28;20453;-36
2023/12/25 04:24:17;;;;;;;336.57;319.03;;;;;;;;;;5075169;28;20447;-43
2023/12/25 04:26:45;;;;;;;328.10;310.90;;;;;;;;;;5075609;28;20440;-38
2023/12/25 04:29:13;;;;;;;325.37;308.00;;;;;;;;;;5094798;28;20438;-40
2023/12/25 04:31:41;;;;;;;323.80;304.43;;;;;;;;;;5076130;28;20992;-36
2023/12/25 04:34:09;;;;;;;324.13;307.23;;;;;;;;;;5091984;28;20476;-39
2023/12/25 04:36:37;;;;;;;328.50;308.90;;;;;;;;;;5093898;28;20453;-40
2023/12/25 04:39:05;;;;;;;327.10;308.33;;;;;;;;;;5076508;28;20475;-36
2023/12/25 04:41:33;;;;;;;317.93;301.40;;;;;;;;;;5091134;28;20536;-39
2023/12/25 04:44:02;;;;;;;318.77;301.23;;;;;;;;;;5077008;28;20447;-38
2023/12/25 04:46:29;;;;;;;293.47;277.10;;;;;;;;;;5093677;28;20485;-40
2023/12/25 04:48:57;;;;;;;290.77;275.33;;;;;;;;;;5089197;28;20948;-37
2023/12/25 04:51:25;;;;;;;284.23;269.13;;;;;;;;;;5091801;28;20433;-38
2023/12/25 04:53:52;;;;;;;285.30;270.63;;;;;;;;;;5093646;28;20448;-45
2023/12/25 04:56:20;;;;;;;297.87;281.90;;;;;;;;;;5083351;28;20458;-38
2023/12/25 04:58:47;;;;;;;308.37;293.07;;;;;;;;;;5075163;28;21093;-41
2023/12/25 05:01:16;;;;;;;302.50;286.50;;;;;;;;;;5090245;28;20429;-41
2023/12/25 05:03:44;;;;;;;313.17;296.03;;;;;;;;;;5083431;28;20434;-37
2023/12/25 05:06:12;;;;;;;269.07;254.30;;;;;;;;;;5073020;28;20465;-39
2023/12/25 05:08:40;;;;;;;277.03;261.60;;;;;;;;;;5077669;28;20523;-38
2023/12/25 05:11:08;;;;;;;265.40;251.33;;;;;;;;;;5081401;28;20441;-36
2023/12/25 05:13:36;;;;;;;273.17;258.97;;;;;;;;;;5076183;28;20491;-40
2023/12/25 05:16:03;;;;;;;290.60;275.80;;;;;;;;;;5076276;28;20470;-38
2023/12/25 05:18:32;;;;;;;294.63;280.33;;;;;;;;;;5069128;28;20824;-37
2023/12/25 05:21:00;;;;;;;286.73;271.33;;;;;;;;;;5071134;28;20442;-40
2023/12/25 05:23:28;;;;;;;286.63;272.60;;;;;;;;;;5081007;28;20464;-41
2023/12/25 05:25:55;;;;;;;295.60;280.47;;;;;;;;;;5072016;28;20486;-41
2023/12/25 05:28:23;;;;;;;292.63;277.60;;;;;;;;;;5089372;28;20441;-39
2023/12/25 05:30:51;;;;;;;303.97;287.63;;;;;;;;;;5090535;28;20521;-37
2023/12/25 05:33:20;;;;;;;284.40;269.53;;;;;;;;;;5084669;28;20552;-39
2023/12/25 05:35:50;;;;;;;287.10;272.23;;;;;;;;;;5092660;28;20863;-41
2023/12/25 05:38:18;;;;;;;280.53;265.33;;;;;;;;;;5084264;28;20437;-37
2023/12/25 05:40:46;;;;;;;273.90;259.17;;;;;;;;;;5076477;28;20928;-39
2023/12/25 05:43:13;;;;;;;282.20;267.33;;;;;;;;;;5069410;28;20538;-39
2023/12/25 05:45:41;;;;;;;447.50;419.70;;;;;;;;;;5067692;28;20893;-39
2023/12/25 05:48:08;;;;;;;449.80;422.40;;;;;;;;;;5092674;28;20433;-40
2023/12/25 05:50:36;;;;;;;447.90;421.00;;;;;;;;;;5089365;28;20462;-36
2023/12/25 05:53:05;;;;;;;444.53;419.33;;;;;;;;;;5090398;28;20527;-39
2023/12/25 05:55:33;;;;;;;415.17;392.00;;;;;;;;;;5074223;28;20468;-40
2023/12/25 05:58:00;;;;;;;423.07;401.13;;;;;;;;;;5072421;28;20469;-39
2023/12/25 06:00:28;;;;;;;412.53;390.97;;;;;;;;;;5092515;28;20852;-38
2023/12/25 06:02:56;;;;;;;388.77;368.93;;;;;;;;;;5092088;28;20462;-39
2023/12/25 06:05:24;;;;;;;415.67;395.93;;;;;;;;;;5087994;28;20828;-37
2023/12/25 06:07:51;;;;;;;447.53;422.47;;;;;;;;;;5058068;28;20513;-39
2023/12/25 06:10:22;;;;;;;471.23;441.63;;;;;;;;;;5078027;28;20495;-42
2023/12/25 06:12:50;;;;;;;466.53;437.40;;;;;;;;;;5083172;28;20539;-43
2023/12/25 06:15:17;;;;;;;440.63;413.37;;;;;;;;;;5075627;28;21018;-37
2023/12/25 06:17:45;;;;;;;442.63;416.17;;;;;;;;;;5091968;28;20444;-38
2023/12/25 06:20:12;;;;;;;432.83;407.30;;;;;;;;;;5088248;28;20484;-37
2023/12/25 06:22:45;;;;;;;422.27;398.23;;;;;;;;;;5067736;28;20454;-39
2023/12/25 06:25:13;;;;;;;408.60;386.53;;;;;;;;;;5084848;28;20475;-39
2023/12/25 06:27:42;;;;;;;429.40;406.13;;;;;;;;;;5051795;28;20954;-36
2023/12/25 06:30:24;;;;;;;412.97;391.83;;;;;;;;;;5061515;28;20469;-37
2023/12/25 06:32:52;;;;;;;393.37;372.93;;;;;;;;;;5091517;28;20465;-45
2023/12/25 06:35:19;;;;;;;397.47;377.60;;;;;;;;;;5088441;28;20465;-38
2023/12/25 06:37:47;;;;;;;389.57;370.37;;;;;;;;;;5075067;28;20453;-37
2023/12/25 06:40:15;;;;;;;375.37;355.80;;;;;;;;;;5058794;28;20552;-40
2023/12/25 06:42:44;;;;;;;369.07;350.87;;;;;;;;;;5091684;28;20493;-39
2023/12/25 06:45:11;;;;;;;345.73;329.23;;;;;;;;;;5079918;28;20886;-39
2023/12/25 06:47:39;;;;;;;349.07;332.30;;;;;;;;;;5091547;28;20562;-37
2023/12/25 06:50:07;;;;;;;331.27;314.53;;;;;;;;;;5088466;28;20438;-39
2023/12/25 06:52:34;;;;;;;329.63;313.23;;;;;;;;;;5062714;28;20463;-37
2023/12/25 06:55:02;;;;;;;328.57;313.23;;;;;;;;;;5087261;28;20544;-38
2023/12/25 06:57:29;;;;;;;330.37;314.40;;;;;;;;;;5087749;28;20956;-37
2023/12/25 06:59:58;;;;;;;325.20;310.03;;;;;;;;;;5082970;28;20488;-37
2023/12/25 07:02:26;;;;;;;311.00;296.80;;;;;;;;;;5091615;28;20457;-40
2023/12/25 07:04:53;;;;;;;307.60;292.63;;;;;;;;;;5090167;28;20496;-35
2023/12/25 07:07:21;;;;;;;277.50;263.53;;;;;;;;;;5087988;28;20483;-39
2023/12/25 07:09:49;;;;;;;273.07;259.40;;;;;;;;;;5058701;28;20439;-38
2023/12/25 07:12:16;;;;;;;273.00;259.83;;;;;;;;;;5087182;28;20488;-39
2023/12/25 07:14:45;;;;;;;256.37;243.40;;;;;;;;;;5086849;28;20480;-38
2023/12/25 07:17:13;;;;;;;248.90;236.63;;;;;;;;;;5088892;28;20511;-39
2023/12/25 07:19:41;;;;;;;249.03;237.13;;;;;;;;;;5088304;28;20467;-39
2023/12/25 07:22:09;;;;;;;262.23;249.80;;;;;;;;;;5072568;28;21084;-37
2023/12/25 07:24:36;;;;;;;271.23;259.30;;;;;;;;;;5075763;28;20489;-39
2023/12/25 07:27:04;;;;;;;275.23;260.33;;;;;;;;;;5068905;28;20517;-37
2023/12/25 07:29:32;;;;;;;286.27;272.30;;;;;;;;;;5067911;28;20437;-39
2023/12/25 07:31:59;;;;;;;294.87;280.63;;;;;;;;;;5082430;28;20521;-38
2023/12/25 07:34:28;;;;;;;296.40;282.80;;;;;;;;;;5087077;28;20440;-36
2023/12/25 07:36:57;;;;;;;298.47;284.37;;;;;;;;;;5089476;28;20433;-36
2023/12/25 07:39:25;;;;;;;293.83;279.93;;;;;;;;;;5083873;28;20461;-38
2023/12/25 07:41:55;;;;;;;304.73;290.73;;;;;;;;;;5082484;28;20505;-36
2023/12/25 07:44:22;;;;;;;291.47;277.83;;;;;;;;;;5082332;28;20520;-38
2023/12/25 07:46:50;;;;;;;294.90;281.43;;;;;;;;;;5067155;28;20439;-37
2023/12/25 07:49:18;;;;;;;299.03;285.37;;;;;;;;;;5086793;28;20936;-39
2023/12/25 07:51:47;;;;;;;298.80;284.73;;;;;;;;;;5059796;28;20535;-39
2023/12/25 07:54:14;;;;;;;308.80;293.23;;;;;;;;;;5063068;28;20482;-37
2023/12/25 07:56:42;;;;;;;308.97;294.87;;;;;;;;;;5063694;28;20464;-39
2023/12/25 07:59:09;;;;;;;315.30;301.30;;;;;;;;;;5082385;28;20472;-39
2023/12/25 08:01:37;;;;;;;325.63;310.63;;;;;;;;;;5062589;28;20562;-38
2023/12/25 08:04:04;;;;;;;323.43;308.73;;;;;;;;;;5069285;28;20532;-36
2023/12/25 08:06:32;;;;;;;309.17;293.70;;;;;;;;;;5079922;28;21051;-35
2023/12/25 08:09:01;;;;;;;321.23;306.80;;;;;;;;;;5076774;28;20441;-39
2023/12/25 08:11:29;;;;;;;314.70;299.53;;;;;;;;;;5074091;28;20963;-36
2023/12/25 08:13:56;;;;;;;320.03;306.43;;;;;;;;;;5057314;28;20474;-37
2023/12/25 08:16:24;;;;;;;315.13;299.87;;;;;;;;;;5074875;28;20462;-37
2023/12/25 08:18:52;;;;;;;312.67;297.53;;;;;;;;;;5075297;28;20467;-38
2023/12/25 08:21:20;;;;;;;313.87;297.93;;;;;;;;;;5081362;28;20522;-37
2023/12/25 08:23:47;;;;;;;316.17;301.17;;;;;;;;;;5070773;28;20437;-37
2023/12/25 08:26:16;;;;;;;317.40;300.93;;;;;;;;;;5073422;28;20461;-37
2023/12/25 08:28:44;;;;;;;303.37;287.60;;;;;;;;;;5090272;28;20459;-37
2023/12/25 08:31:11;;;;;;;300.93;286.27;;;;;;;;;;5082848;28;20631;-40
2023/12/25 08:33:39;;;;;;;278.73;265.57;;;;;;;;;;5078207;28;20572;-37
2023/12/25 08:36:07;;;;;;;275.90;261.53;;;;;;;;;;5058001;28;20550;-39
2023/12/25 08:38:35;;;;;;;264.07;251.57;;;;;;;;;;5097248;22;21080;-41
2023/12/25 08:41:04;;;;;;;252.87;240.50;;;;;;;;;;5052965;28;20471;-43
2023/12/25 08:43:34;;;;;;;249.83;237.90;;;;;;;;;;5051885;28;20466;-44
2023/12/25 08:46:01;;;;;;;235.80;224.67;;;;;;;;;;5051103;28;20522;-43
2023/12/25 08:48:29;;;;;;;237.53;226.27;;;;;;;;;;5043001;28;21200;-42
2023/12/25 08:50:56;;;;;;;223.93;212.43;;;;;;;;;;5051939;28;20448;-41
2023/12/25 08:53:24;;;;;;;240.63;228.70;;;;;;;;;;5043701;28;20443;-41
2023/12/25 08:55:52;;;;;;;226.13;216.13;;;;;;;;;;5051880;28;20495;-44
2023/12/25 08:58:21;;;;;;;203.77;194.37;;;;;;;;;;5039923;28;20478;-45
2023/12/25 09:00:50;;;;;;;227.03;216.73;;;;;;;;;;5047058;28;20482;-44
2023/12/25 09:03:18;;;;;;;211.70;201.50;;;;;;;;;;5032598;28;21018;-42
2023/12/25 09:05:46;;;;;;;194.97;185.67;;;;;;;;;;5045863;28;20463;-40
2023/12/25 09:08:13;;;;;;;198.87;189.03;;;;;;;;;;5048846;28;20455;-44
2023/12/25 09:10:41;;;;;;;194.27;185.40;;;;;;;;;;5037263;28;20923;-43
2023/12/25 09:13:09;;;;;;;216.83;204.37;;;;;;;;;;5041711;28;20452;-42
2023/12/25 09:15:36;;;;;;;225.00;213.60;;;;;;;;;;5044390;28;20464;-43
2023/12/25 09:18:05;;;;;;;227.80;216.00;;;;;;;;;;5041761;28;20542;-44
2023/12/25 09:20:33;;;;;;;206.83;195.13;;;;;;;;;;5043522;28;20923;-42
2023/12/25 09:23:01;;;;;;;174.10;164.27;;;;;;;;;;5042252;28;21009;-43
2023/12/25 09:25:29;;;;;;;162.43;153.53;;;;;;;;;;5042690;28;20901;-43
2023/12/25 09:27:56;;;;;;;152.57;144.97;;;;;;;;;;5050368;28;20455;-42
2023/12/25 09:30:24;;;;;;;152.50;144.33;;;;;;;;;;5039189;28;20518;-42
2023/12/25 09:32:52;;;;;;;154.17;145.17;;;;;;;;;;5037990;28;20531;-45
2023/12/25 09:35:21;;;;;;;154.10;145.33;;;;;;;;;;5041420;28;20468;-45
2023/12/25 09:37:49;;;;;;;157.17;149.20;;;;;;;;;;5049856;28;20491;-41
2023/12/25 09:40:16;;;;;;;163.93;153.80;;;;;;;;;;5034149;28;20526;-44
2023/12/25 09:42:45;;;;;;;159.73;150.00;;;;;;;;;;5044538;28;21070;-44
2023/12/25 09:45:14;;;;;;;167.53;159.53;;;;;;;;;;5042193;28;20459;-44
2023/12/25 09:47:42;;;;;;;160.37;152.43;;;;;;;;;;5037177;28;20495;-47
2023/12/25 09:50:11;;;;;;;162.40;153.90;;;;;;;;;;5052745;28;20872;-43
2023/12/25 09:52:40;;;;;;;160.73;152.23;;;;;;;;;;5039511;28;20519;-41
2023/12/25 09:55:08;;;;;;;155.63;148.00;;;;;;;;;;5040468;28;20543;-43
2023/12/25 09:57:36;;;;;;;146.93;139.47;;;;;;;;;;5041168;28;20535;-44
2023/12/25 10:00:05;;;;;;;154.10;146.30;;;;;;;;;;5049106;28;20534;-42
2023/12/25 10:02:35;;;;;;;160.13;152.10;;;;;;;;;;5032609;28;21037;-43
2023/12/25 10:05:03;;;;;;;150.47;143.10;;;;;;;;;;5040009;28;20889;-45
2023/12/25 10:07:30;;;;;;;145.53;137.73;;;;;;;;;;5040150;28;20931;-48
2023/12/25 10:09:59;;;;;;;146.20;137.10;;;;;;;;;;5048432;28;20443;-46
2023/12/25 10:12:27;;;;;;;148.50;140.90;;;;;;;;;;5048621;28;20431;-44
2023/12/25 10:14:55;;;;;;;148.23;139.80;;;;;;;;;;5039047;28;20555;-45
2023/12/25 10:17:22;;;;;;;145.73;137.93;;;;;;;;;;5032477;28;20518;-44
2023/12/25 10:19:51;;;;;;;147.63;140.57;;;;;;;;;;5047116;28;20439;-44
2023/12/25 10:22:30;;;;;;;152.93;144.80;;;;;;;;;;5034631;28;20894;-45
2023/12/25 10:25:06;;;;;;;149.10;141.73;;;;;;;;;;5043704;28;21115;-41
2023/12/25 10:27:34;;;;;;;136.13;129.17;;;;;;;;;;5047804;28;20462;-44
2023/12/25 10:30:03;;;;;;;139.50;132.90;;;;;;;;;;5032140;28;20447;-41
2023/12/25 10:32:31;;;;;;;139.77;133.13;;;;;;;;;;5024085;28;20519;-44
2023/12/25 10:35:11;;;;;;;160.87;152.77;;;;;;;;;;5031588;28;20464;-47
2023/12/25 10:37:39;;;;;;;157.77;149.30;;;;;;;;;;5032862;28;20503;-43
2023/12/25 10:40:22;;;;;;;158.00;149.27;;;;;;;;;;5048326;28;20501;-45
2023/12/25 10:42:51;;;;;;;145.00;136.00;;;;;;;;;;5041315;28;20540;-44
2023/12/25 10:45:22;;;;;;;146.47;138.80;;;;;;;;;;5040725;28;20486;-43
2023/12/25 10:47:51;;;;;;;154.20;146.93;;;;;;;;;;5037600;28;20538;-46
2023/12/25 10:50:21;;;;;;;146.13;139.30;;;;;;;;;;5041435;28;20448;-44
2023/12/25 10:52:49;;;;;;;139.90;131.87;;;;;;;;;;5037451;28;20446;-44
2023/12/25 10:55:20;;;;;;;142.80;135.37;;;;;;;;;;5049538;28;20487;-44
2023/12/25 10:57:48;;;;;;;122.73;116.67;;;;;;;;;;5031417;28;20459;-43
2023/12/25 11:00:18;;;;;;;125.50;119.30;;;;;;;;;;5040977;28;20864;-43
2023/12/25 11:02:46;;;;;;;135.20;128.37;;;;;;;;;;5051349;28;20481;-44
2023/12/25 11:05:14;;;;;;;137.87;131.30;;;;;;;;;;5042460;28;20460;-43
2023/12/25 11:07:41;;;;;;;123.97;116.63;;;;;;;;;;5051059;28;20561;-44
2023/12/25 11:10:11;;;;;;;127.87;120.53;;;;;;;;;;5051320;28;20530;-44
2023/12/25 11:12:39;;;;;;;132.83;126.13;;;;;;;;;;5051563;28;20798;-41
2023/12/25 11:15:06;;;;;;;126.77;120.87;;;;;;;;;;5050243;28;20558;-41
2023/12/25 11:17:36;;;;;;;104.80;99.80;;;;;;;;;;5045079;28;20471;-45
2023/12/25 11:20:10;;;;;;;117.57;111.30;;;;;;;;;;5044313;28;20657;-41
2023/12/25 11:22:37;;;;;;;100.47;95.40;;;;;;;;;;5034642;28;20561;-41
2023/12/25 11:25:06;;;;;;;94.43;89.27;;;;;;;;;;5041716;28;20490;-45
2023/12/25 11:27:34;;;;;;;98.73;93.40;;;;;;;;;;5039132;28;20470;-47
2023/12/25 11:30:02;;;;;;;110.83;105.17;;;;;;;;;;5046871;28;20439;-44
2023/12/25 11:32:31;;;;;;;108.27;102.60;;;;;;;;;;5050734;28;20446;-43
2023/12/25 11:35:00;;;;;;;109.63;102.70;;;;;;;;;;5050810;28;20451;-43
2023/12/25 11:37:28;;;;;;;104.87;99.40;;;;;;;;;;5039495;28;20496;-43
2023/12/25 11:39:58;;;;;;;117.53;111.87;;;;;;;;;;5031321;28;20527;-44
2023/12/25 11:42:26;;;;;;;112.17;105.90;;;;;;;;;;5049787;28;20481;-43
2023/12/25 11:45:01;;;;;;;111.10;105.27;;;;;;;;;;5050516;28;20458;-45
2023/12/25 11:47:29;;;;;;;104.40;98.60;;;;;;;;;;5036562;28;20539;-43
2023/12/25 11:49:57;;;;;;;103.93;98.20;;;;;;;;;;5031292;28;20468;-45
2023/12/25 11:52:43;;;;;;;107.23;101.57;;;;;;;;;;5047245;28;20803;-45
2023/12/25 11:55:13;;;;;;;99.33;93.77;;;;;;;;;;5038365;28;20493;-43
2023/12/25 11:57:42;;;;;;;100.70;95.90;;;;;;;;;;5038989;28;20460;-45
2023/12/25 12:00:15;;;;;;;97.03;91.03;;;;;;;;;;5047803;28;20534;-40
2023/12/25 12:02:45;;;;;;;98.17;91.30;;;;;;;;;;5050896;28;20478;-40
2023/12/25 12:05:13;;;;;;;97.87;91.90;;;;;;;;;;5050373;28;20831;-41
2023/12/25 12:07:41;;;;;;;90.23;84.70;;;;;;;;;;5042236;28;20455;-42
2023/12/25 12:10:10;;;;;;;100.80;95.57;;;;;;;;;;5042670;28;20435;-45
2023/12/25 12:12:39;;;;;;;100.17;94.30;;;;;;;;;;5053646;28;20427;-41
2023/12/25 12:15:07;;;;;;;106.70;100.77;;;;;;;;;;5046399;28;20460;-41
2023/12/25 12:17:35;;;;;;;116.30;110.20;;;;;;;;;;5045769;28;20491;-43
2023/12/25 12:20:04;;;;;;;117.00;110.80;;;;;;;;;;5045158;28;20435;-43
2023/12/25 12:22:32;;;;;;;125.73;119.33;;;;;;;;;;5041774;28;20439;-41
2023/12/25 12:25:12;;;;;;;111.33;105.23;;;;;;;;;;5040933;28;21242;-43
2023/12/25 12:27:41;;;;;;;111.70;105.20;;;;;;;;;;5048184;28;20461;-48
2023/12/25 12:30:09;;;;;;;108.57;102.23;;;;;;;;;;5046499;28;20440;-44
2023/12/25 12:32:38;;;;;;;117.00;110.00;;;;;;;;;;5042536;28;20490;-43
2023/12/25 12:35:07;;;;;;;111.10;105.60;;;;;;;;;;5043669;28;20471;-45
2023/12/25 12:37:35;;;;;;;118.40;112.13;;;;;;;;;;5053717;28;20505;-45
2023/12/25 12:40:03;;;;;;;117.63;111.23;;;;;;;;;;5047198;28;20436;-45
2023/12/25 12:42:32;;;;;;;118.53;111.80;;;;;;;;;;5036484;28;20498;-43
2023/12/25 12:45:02;;;;;;;122.37;116.70;;;;;;;;;;5047288;28;20564;-43
2023/12/25 12:47:30;;;;;;;115.90;110.30;;;;;;;;;;5041683;28;20467;-45
2023/12/25 12:49:58;;;;;;;120.43;114.17;;;;;;;;;;5043315;28;20439;-45
2023/12/25 12:52:26;;;;;;;115.37;109.43;;;;;;;;;;5053635;28;20537;-42
2023/12/25 12:54:53;;;;;;;116.43;110.40;;;;;;;;;;5053707;28;20829;-46
2023/12/25 12:57:21;;;;;;;110.80;104.50;;;;;;;;;;5053171;28;20454;-40
2023/12/25 12:59:51;;;;;;;123.40;116.37;;;;;;;;;;5045353;28;20514;-42
2023/12/25 13:02:20;;;;;;;119.67;113.23;;;;;;;;;;5036876;28;20475;-42
2023/12/25 13:04:47;;;;;;;122.80;116.30;;;;;;;;;;5053101;28;20463;-44
2023/12/25 13:07:15;;;;;;;131.17;123.50;;;;;;;;;;5053322;28;20451;-43
2023/12/25 13:09:43;;;;;;;123.47;117.47;;;;;;;;;;5049523;28;20594;-42
2023/12/25 13:12:10;;;;;;;129.37;122.67;;;;;;;;;;5040908;28;20439;-44
2023/12/25 13:14:38;;;;;;;124.47;118.10;;;;;;;;;;5052609;28;20462;-44
2023/12/25 13:17:06;;;;;;;119.30;112.47;;;;;;;;;;5052681;28;20456;-44
2023/12/25 13:19:35;;;;;;;137.07;130.03;;;;;;;;;;5036313;28;20444;-44
2023/12/25 13:22:03;;;;;;;136.83;129.70;;;;;;;;;;5042120;28;20443;-45
2023/12/25 13:24:31;;;;;;;144.90;137.03;;;;;;;;;;5050582;28;20829;-44
2023/12/25 13:27:03;;;;;;;150.87;142.40;;;;;;;;;;5046938;28;21048;-44
2023/12/25 13:29:30;;;;;;;153.00;144.33;;;;;;;;;;5053392;28;20443;-44
2023/12/25 13:31:58;;;;;;;163.53;154.40;;;;;;;;;;5047231;28;20428;-43
2023/12/25 13:34:26;;;;;;;159.50;149.73;;;;;;;;;;5049128;28;20471;-44
2023/12/25 13:36:55;;;;;;;164.97;155.63;;;;;;;;;;5046481;28;20520;-40
2023/12/25 13:39:23;;;;;;;169.47;160.03;;;;;;;;;;5052092;28;20439;-44
2023/12/25 13:41:50;;;;;;;177.60;167.47;;;;;;;;;;5033357;28;20432;-41
2023/12/25 13:44:18;;;;;;;173.70;164.13;;;;;;;;;;5040928;28;21007;-43
2023/12/25 13:46:46;;;;;;;165.70;157.00;;;;;;;;;;5052695;28;20481;-41
2023/12/25 13:49:13;;;;;;;176.60;167.73;;;;;;;;;;5044622;28;20439;-44
2023/12/25 13:51:41;;;;;;;177.80;167.77;;;;;;;;;;5027758;28;20459;-44
2023/12/25 13:54:10;;;;;;;176.13;166.97;;;;;;;;;;5045260;28;20962;-44
2023/12/25 13:56:39;;;;;;;179.13;168.40;;;;;;;;;;5051343;28;20931;-40
2023/12/25 13:59:06;;;;;;;185.47;175.40;;;;;;;;;;5044711;28;20446;-45